Time;durP1;ratioP1;P1;durP2;ratioP2;P2;SDS_P1;SDS_P2;PMS_P1;PMS_P2;Temp;Humidity;BMP_temperature;BMP_pressure;BME280_temperature;BME280_humidity;BME280_pressure;Samples;Min_cycle;Max_cycle;Signal;HPM_P1;HPM_P2
2023/03/14 00:03:14;;;;;;;30.38;5.57;;;;;;;8.60;100.00;98601.72;10415301;28;20059;-75
2023/03/14 00:08:15;;;;;;;22.75;4.68;;;;;;;8.75;100.00;98597.13;10432138;28;20041;-74
2023/03/14 00:13:15;;;;;;;22.58;5.38;;;;;;;8.90;100.00;98605.09;10448345;28;20060;-75
2023/03/14 00:18:16;;;;;;;32.65;7.05;;;;;;;8.99;100.00;98611.56;10415320;28;20263;-75
2023/03/14 00:23:16;;;;;;;22.60;4.18;;;;;;;9.01;100.00;98606.59;10410148;28;20116;-69
2023/03/14 00:28:17;;;;;;;21.65;4.63;;;;;;;9.18;100.00;98595.03;10413236;28;20033;-75
2023/03/14 00:33:17;;;;;;;24.75;4.22;;;;;;;9.35;100.00;98588.97;10446605;28;20048;-75
2023/03/14 00:38:18;;;;;;;16.73;5.38;;;;;;;9.43;100.00;98591.03;10447509;28;20040;-75
2023/03/14 00:43:21;;;;;;;22.52;5.57;;;;;;;9.52;100.00;98604.88;10404443;28;20450;-75
2023/03/14 00:48:21;;;;;;;20.45;3.85;;;;;;;9.65;100.00;98589.50;10428696;28;20105;-75
2023/03/14 00:53:22;;;;;;;20.20;4.72;;;;;;;9.74;100.00;98590.44;10428450;28;20140;-75
2023/03/14 00:58:23;;;;;;;16.63;3.53;;;;;;;9.67;100.00;98557.06;10446224;28;20044;-75
2023/03/14 01:03:24;;;;;;;24.17;4.50;;;;;;;9.78;100.00;98564.00;10410319;28;20033;-75
2023/03/14 01:08:24;;;;;;;19.05;4.55;;;;;;;9.49;100.00;98534.06;10446007;28;20045;-74
2023/03/14 01:13:25;;;;;;;19.58;4.15;;;;;;;9.81;100.00;98585.34;10430277;28;20048;-75
2023/03/14 01:18:25;;;;;;;24.08;5.25;;;;;;;9.72;100.00;98562.47;10417772;28;20033;-75
2023/03/14 01:23:25;;;;;;;15.10;3.88;;;;;;;9.83;100.00;98561.13;10384153;28;20533;-75
2023/03/14 01:28:26;;;;;;;21.95;6.07;;;;;;;9.83;100.00;98560.31;10412042;28;20038;-75
2023/03/14 01:33:26;;;;;;;13.77;3.85;;;;;;;9.76;100.00;98554.44;10328648;28;20049;-75
2023/03/14 01:38:27;;;;;;;17.55;4.32;;;;;;;9.68;100.00;98558.69;10338529;28;20060;-75
2023/03/14 01:43:28;;;;;;;14.93;4.32;;;;;;;9.61;100.00;98558.28;10337892;28;20535;-75
2023/03/14 01:48:31;;;;;;;21.13;5.32;;;;;;;9.25;100.00;98501.28;10354702;28;20042;-74
2023/03/14 01:53:31;;;;;;;19.83;4.38;;;;;;;9.57;100.00;98577.31;10338397;28;20063;-75
2023/03/14 01:58:34;;;;;;;21.88;4.90;;;;;;;9.52;100.00;98563.66;10322586;28;20042;-75
2023/03/14 02:03:38;;;;;;;22.33;6.00;;;;;;;9.61;100.00;98561.03;10334849;28;20100;-75
2023/03/14 02:08:39;;;;;;;14.02;4.35;;;;;;;9.68;100.00;98547.72;10371485;28;20046;-74
2023/03/14 02:13:39;;;;;;;14.25;4.07;;;;;;;9.66;100.00;98538.97;10338021;28;20044;-75
2023/03/14 02:18:42;;;;;;;12.60;3.63;;;;;;;9.73;100.00;98533.03;10337281;28;20038;-74
2023/03/14 02:23:53;;;;;;;16.90;3.72;;;;;;;9.75;100.00;98537.09;10408553;28;20406;-74
2023/03/14 02:28:54;;;;;;;17.83;4.13;;;;;;;9.68;100.00;98536.72;10392477;28;20139;-74
2023/03/14 02:33:54;;;;;;;12.82;4.00;;;;;;;9.62;100.00;98513.22;10359914;28;20045;-74
2023/03/14 02:39:08;;;;;;;17.70;4.07;;;;;;;9.70;100.00;98535.28;10393763;28;20044;-74
2023/03/14 02:44:08;;;;;;;11.40;3.60;;;;;;;9.55;100.00;98510.88;10409814;28;20540;-74
2023/03/14 02:49:11;;;;;;;11.60;2.85;;;;;;;9.62;100.00;98527.75;10409524;28;20033;-75
2023/03/14 02:54:11;;;;;;;14.45;4.10;;;;;;;9.55;100.00;98519.13;10392660;28;20067;-75
2023/03/14 02:59:12;;;;;;;15.57;3.22;;;;;;;9.59;100.00;98516.56;10409936;28;20037;-75
2023/03/14 03:04:12;;;;;;;16.05;2.88;;;;;;;9.46;100.00;98529.97;10351598;28;20561;-75
2023/03/14 03:09:13;;;;;;;14.20;2.40;;;;;;;9.46;100.00;98529.19;10351529;28;20069;-75
2023/03/14 03:14:13;;;;;;;12.90;3.97;;;;;;;9.35;100.00;98508.53;10367813;28;20081;-74
2023/03/14 03:19:14;;;;;;;11.43;4.05;;;;;;;9.09;100.00;98471.41;10351422;28;20494;-75
2023/03/14 03:24:14;;;;;;;16.58;4.75;;;;;;;9.29;100.00;98518.78;10349552;28;20057;-75
2023/03/14 03:29:15;;;;;;;14.40;3.95;;;;;;;9.31;100.00;98504.78;10402914;28;20053;-74
2023/03/14 03:34:15;;;;;;;16.40;4.75;;;;;;;9.32;100.00;98518.16;10372727;28;20046;-75
2023/03/14 03:39:15;;;;;;;12.00;3.70;;;;;;;9.31;100.00;98516.56;10342374;28;20077;-75
2023/03/14 03:44:16;;;;;;;10.45;4.47;;;;;;;9.24;100.00;98507.91;10381509;28;20034;-76
2023/03/14 03:49:16;;;;;;;11.93;3.90;;;;;;;9.18;100.00;98518.19;10406466;28;20040;-74
2023/03/14 03:54:17;;;;;;;11.90;3.50;;;;;;;9.26;100.00;98528.47;10390542;28;20056;-75
2023/03/14 03:59:18;;;;;;;8.82;3.20;;;;;;;9.14;100.00;98522.66;10442550;28;20048;-76
2023/03/14 04:04:18;;;;;;;13.32;3.60;;;;;;;9.04;100.00;98523.63;10394465;28;20129;-75
2023/03/14 04:09:18;;;;;;;15.57;4.18;;;;;;;8.97;100.00;98525.97;10408274;28;20048;-69
2023/03/14 04:14:19;;;;;;;16.40;4.30;;;;;;;8.85;100.00;98533.84;10406604;28;20049;-75
2023/03/14 04:19:20;;;;;;;13.38;4.30;;;;;;;8.85;100.00;98539.34;10406435;28;20624;-76
2023/03/14 04:24:21;;;;;;;11.90;4.50;;;;;;;8.78;100.00;98541.66;10372329;28;20113;-75
2023/03/14 04:29:21;;;;;;;15.60;4.22;;;;;;;8.76;100.00;98533.72;10390050;28;20058;-75
2023/03/14 04:34:22;;;;;;;18.13;5.15;;;;;;;8.71;100.00;98527.50;10364957;28;20038;-74
2023/03/14 04:39:22;;;;;;;15.10;5.40;;;;;;;8.67;100.00;98536.31;10366002;28;20061;-74
2023/03/14 04:44:23;;;;;;;17.48;5.47;;;;;;;8.61;100.00;98532.03;10365224;28;20045;-73
2023/03/14 04:49:23;;;;;;;18.50;7.78;;;;;;;8.49;100.00;98517.97;10348452;28;20088;-76
2023/03/14 04:54:24;;;;;;;20.85;7.50;;;;;;;8.22;100.00;98511.19;10380743;28;20037;-77
2023/03/14 04:59:24;;;;;;;15.52;6.82;;;;;;;8.16;100.00;98519.81;10408748;28;20037;-76
2023/03/14 05:04:25;;;;;;;16.23;6.65;;;;;;;8.15;100.00;98519.00;10398249;28;20029;-77
2023/03/14 05:09:25;;;;;;;16.48;5.32;;;;;;;8.23;100.00;98523.00;10380479;28;20045;-77
2023/03/14 05:14:26;;;;;;;18.27;5.18;;;;;;;8.19;100.00;98508.25;10412978;28;20444;-77
2023/03/14 05:19:26;;;;;;;19.63;6.57;;;;;;;8.30;100.00;98509.72;10396155;28;20097;-77
2023/03/14 05:24:27;;;;;;;14.13;4.85;;;;;;;8.24;100.00;98500.75;10395319;28;20048;-76
2023/03/14 05:29:27;;;;;;;13.60;5.75;;;;;;;8.30;100.00;98512.47;10396035;28;20046;-77
2023/03/14 05:34:28;;;;;;;16.40;5.65;;;;;;;7.87;100.00;98442.13;10354904;28;20038;-77
2023/03/14 05:39:28;;;;;;;22.17;9.77;;;;;;;8.20;100.00;98491.50;10377197;28;20037;-74
2023/03/14 05:44:29;;;;;;;18.25;7.40;;;;;;;8.20;100.00;98487.94;10375115;28;20057;-74
2023/03/14 05:49:29;;;;;;;24.20;9.07;;;;;;;8.18;100.00;98495.66;10375930;28;20053;-74
2023/03/14 05:54:30;;;;;;;16.77;9.10;;;;;;;8.12;100.00;98486.69;10408665;28;20044;-75
2023/03/14 05:59:30;;;;;;;18.85;9.27;;;;;;;8.05;100.00;98489.81;10394393;28;20474;-75
2023/03/14 06:04:31;;;;;;;21.15;8.90;;;;;;;7.96;100.00;98482.53;10361630;28;20863;-75
2023/03/14 06:09:31;;;;;;;18.10;7.90;;;;;;;8.05;100.00;98499.97;10393587;28;20041;-76
2023/03/14 06:14:32;;;;;;;15.98;9.75;;;;;;;7.96;100.00;98485.28;10394631;28;20081;-78
2023/03/14 06:19:32;;;;;;;19.02;9.02;;;;;;;7.68;100.00;98447.56;10377105;28;20096;-78
2023/03/14 06:24:33;;;;;;;17.83;9.38;;;;;;;7.95;100.00;98487.22;10368059;28;20038;-73
2023/03/14 06:29:33;;;;;;;16.23;8.10;;;;;;;7.98;100.00;98494.84;10315361;28;20190;-79
2023/03/14 06:34:34;;;;;;;14.27;7.50;;;;;;;8.05;100.00;98506.25;10313530;28;20030;-78
2023/03/14 06:39:34;;;;;;;18.95;6.93;;;;;;;8.04;100.00;98518.34;10311839;28;20026;-78
2023/03/14 06:44:34;;;;;;;14.10;6.32;;;;;;;8.07;100.00;98528.69;10301977;28;20045;-75
2023/03/14 06:49:35;;;;;;;18.08;6.53;;;;;;;8.08;100.00;98526.75;10334096;28;20104;-77
2023/03/14 06:54:35;;;;;;;11.90;5.55;;;;;;;8.12;100.00;98530.53;10333255;28;20045;-76
2023/03/14 06:59:36;;;;;;;12.85;4.57;;;;;;;8.07;100.00;98547.88;10363199;28;20629;-76
2023/03/14 07:04:36;;;;;;;10.93;4.97;;;;;;;8.00;100.00;98554.81;10332448;28;20052;-76
2023/03/14 07:09:37;;;;;;;11.35;5.97;;;;;;;7.95;100.00;98640.63;10349897;28;20046;-76
2023/03/14 07:14:37;;;;;;;3.47;2.58;;;;;;;7.14;100.00;98647.75;10367318;28;20429;-77
2023/03/14 07:19:38;;;;;;;7.63;3.42;;;;;;;6.77;100.00;98654.59;10367471;28;20100;-76
2023/03/14 07:24:38;;;;;;;17.67;3.97;;;;;;;6.50;100.00;98672.25;10335286;28;20038;-76
2023/03/14 07:29:39;;;;;;;13.18;3.67;;;;;;;6.12;100.00;98703.81;10351575;28;20042;-77
2023/03/14 07:34:39;;;;;;;9.25;3.25;;;;;;;6.03;100.00;98733.63;10336044;28;20038;-77
2023/03/14 07:39:39;;;;;;;17.02;4.05;;;;;;;5.57;100.00;98760.97;10372930;28;20052;-78
2023/03/14 07:44:40;;;;;;;7.60;3.30;;;;;;;4.86;100.00;98767.97;10407945;28;20030;-80
2023/03/14 07:49:40;;;;;;;19.40;4.68;;;;;;;4.34;100.00;98817.88;10406201;28;20060;-79
2023/03/14 07:54:41;;;;;;;14.18;3.45;;;;;;;3.73;100.00;98835.44;10409462;28;20041;-76
2023/03/14 07:59:41;;;;;;;12.43;2.70;;;;;;;3.58;100.00;98857.09;10355153;28;20521;-79
2023/03/14 08:04:42;;;;;;;8.10;3.25;;;;;;;3.30;100.00;98869.84;10370564;28;20038;-81
2023/03/14 08:09:42;;;;;;;6.80;2.38;;;;;;;3.27;100.00;98907.63;10368187;28;20045;-77
2023/03/14 08:14:43;;;;;;;8.70;2.60;;;;;;;3.19;100.00;98915.16;10387342;28;20046;-83
2023/03/14 08:19:43;;;;;;;14.68;3.05;;;;;;;3.13;100.00;98940.63;10337331;28;20038;-83
2023/03/14 08:24:44;;;;;;;4.00;1.60;;;;;;;2.83;100.00;98897.56;10355130;28;20052;-82
2023/03/14 08:29:44;;;;;;;4.63;1.88;;;;;;;3.08;100.00;98934.31;10367715;28;20044;-85
2023/03/14 08:34:45;;;;;;;4.05;1.85;;;;;;;3.38;100.00;98980.91;10354080;28;20092;-79
2023/03/14 08:39:46;;;;;;;2.53;1.63;;;;;;;3.41;100.00;98993.19;10357542;28;20042;-84
2023/03/14 08:44:46;;;;;;;4.63;1.80;;;;;;;3.44;100.00;99019.91;10368874;28;20041;-73
2023/03/14 08:49:47;;;;;;;4.72;1.70;;;;;;;3.69;100.00;99049.31;10350601;28;21156;-83
2023/03/14 08:54:47;;;;;;;4.50;1.75;;;;;;;3.73;100.00;99046.91;10329248;28;20049;-86
2023/03/14 08:59:48;;;;;;;8.13;2.22;;;;;;;3.74;100.00;99049.38;10311423;28;20115;-87
2023/03/14 09:04:50;;;;;;;3.67;1.42;;;;;;;3.18;100.00;98970.63;10347673;28;20034;-86
2023/03/14 09:09:50;;;;;;;4.80;1.98;;;;;;;3.99;100.00;99077.94;10343479;28;20457;-81
2023/03/14 09:14:50;;;;;;;8.57;2.05;;;;;;;4.18;100.00;99109.22;10345344;28;20038;-87
2023/03/14 09:19:51;;;;;;;10.70;2.78;;;;;;;4.33;100.00;99132.25;10346253;28;20042;-80
2023/03/14 09:24:51;;;;;;;12.75;3.13;;;;;;;4.33;100.00;99164.97;10332141;28;20038;-86
2023/03/14 09:29:52;;;;;;;13.30;3.33;;;;;;;4.24;100.00;99184.47;10365412;28;20049;-86
2023/03/14 09:34:52;;;;;;;14.95;3.53;;;;;;;4.30;100.00;99181.81;10364586;28;20038;-87
2023/03/14 09:39:53;;;;;;;15.55;3.83;;;;;;;4.72;100.00;99201.09;10310446;28;20074;-86
2023/03/14 09:45:01;;;;;;;18.70;3.90;;;;;;;4.84;100.00;99222.75;10360716;28;20088;-86
2023/03/14 09:50:03;;;;;;;20.65;4.13;;;;;;;4.93;100.00;99245.72;10379165;28;20057;-86
2023/03/14 09:55:05;;;;;;;22.23;3.78;;;;;;;5.04;100.00;99263.88;10378792;28;20532;-84
2023/03/14 10:00:20;;;;;;;21.02;4.10;;;;;;;5.12;100.00;99275.38;10350406;28;20451;-85
2023/03/14 10:05:23;;;;;;;18.45;2.83;;;;;;;5.00;100.00;99290.00;10408782;28;20041;-85
2023/03/14 10:10:25;;;;;;;23.42;5.00;;;;;;;4.79;100.00;99318.09;10394649;28;20049;-83
2023/03/14 10:15:32;;;;;;;20.10;3.42;;;;;;;4.41;100.00;99328.00;10389416;28;20034;-80
2023/03/14 10:20:37;;;;;;;17.95;3.60;;;;;;;4.37;100.00;99324.94;10369160;28;20049;-81
2023/03/14 10:25:39;;;;;;;22.00;3.28;;;;;;;4.58;100.00;99336.94;10403005;28;20150;-80
2023/03/14 10:30:44;;;;;;;18.33;5.18;;;;;;;4.50;100.00;99307.41;10392000;28;20507;-81
2023/03/14 10:35:44;;;;;;;15.90;3.30;;;;;;;4.91;100.00;99367.88;10410104;28;20038;-82
2023/03/14 10:40:51;;;;;;;27.45;4.25;;;;;;;4.97;100.00;99383.22;10360973;28;20037;-80
2023/03/14 10:45:59;;;;;;;18.17;3.35;;;;;;;4.91;100.00;99376.06;10393381;28;20057;-79
2023/03/14 10:51:16;;;;;;;17.15;2.90;;;;;;;5.12;100.00;99400.88;10367334;28;20048;-79
2023/03/14 10:56:20;;;;;;;22.40;3.78;;;;;;;5.55;100.00;99435.47;10391801;28;20124;-81
2023/03/14 11:01:59;;;;;;;12.90;2.63;;;;;;;5.86;100.00;99442.06;10335818;28;20038;-78
2023/03/14 11:07:18;;;;;;;20.40;4.32;;;;;;;5.70;100.00;99448.44;10351888;28;20072;-77
2023/03/14 11:12:50;;;;;;;12.55;2.65;;;;;;;5.90;100.00;99466.16;10407048;28;20045;-78
2023/03/14 11:18:18;;;;;;;16.73;2.05;;;;;;;6.20;100.00;99482.88;10391256;28;20041;-77
2023/03/14 11:23:23;;;;;;;11.52;2.13;;;;;;;6.02;100.00;99470.41;10365979;28;20188;-77
2023/03/14 11:28:30;;;;;;;6.18;2.55;;;;;;;6.25;100.00;99532.09;10387657;28;20411;-77
2023/03/14 11:34:02;;;;;;;10.13;2.28;;;;;;;5.83;100.00;99532.72;10374928;28;20056;-74
2023/03/14 11:39:03;;;;;;;7.43;1.90;;;;;;;5.86;100.00;99537.66;10360866;28;20030;-77
2023/03/14 11:44:09;;;;;;;12.50;1.67;;;;;;;6.31;100.00;99537.63;10368905;28;20181;-77
2023/03/14 11:49:38;;;;;;;16.08;2.72;;;;;;;6.86;100.00;99577.44;10367895;28;20049;-77
2023/03/14 11:54:38;;;;;;;17.73;2.88;;;;;;;6.57;100.00;99575.00;10382944;28;20060;-77
2023/03/14 11:59:57;;;;;;;6.70;1.45;;;;;;;6.22;100.00;99611.03;10369024;28;20042;-74
2023/03/14 12:05:36;;;;;;;5.07;1.40;;;;;;;6.11;100.00;99598.34;10328511;28;20042;-75
2023/03/14 12:10:41;;;;;;;8.18;1.10;;;;;;;6.41;100.00;99630.66;10381383;28;20417;-74
2023/03/14 12:16:05;;;;;;;6.93;0.90;;;;;;;7.37;99.43;99599.72;10383736;28;20049;-74
2023/03/14 12:21:07;;;;;;;4.68;0.98;;;;;;;8.23;90.76;99601.19;10389766;28;20041;-77
2023/03/14 12:26:21;;;;;;;5.88;0.88;;;;;;;8.93;88.13;99630.97;10389496;28;20049;-76
2023/03/14 12:31:31;;;;;;;8.15;1.00;;;;;;;8.95;86.40;99637.00;10385802;28;20049;-77
2023/03/14 12:36:49;;;;;;;6.63;1.27;;;;;;;8.46;88.92;99670.41;10365586;28;20038;-77
2023/03/14 12:42:01;;;;;;;11.00;2.22;;;;;;;7.30;90.13;99694.94;10367801;28;20034;-77
2023/03/14 12:47:16;;;;;;;11.57;1.73;;;;;;;6.73;96.88;99731.06;10335075;28;20060;-79
2023/03/14 12:52:19;;;;;;;12.90;2.00;;;;;;;6.43;100.00;99754.25;10385343;28;20079;-78
2023/03/14 12:57:46;;;;;;;11.15;1.88;;;;;;;6.31;100.00;99762.56;10373427;28;20036;-79
2023/03/14 13:02:48;;;;;;;15.45;1.83;;;;;;;7.36;100.00;99745.09;10405430;28;20053;-78
2023/03/14 13:07:48;;;;;;;10.70;2.10;;;;;;;7.63;98.44;99772.44;10406807;28;20038;-79
2023/03/14 13:13:01;;;;;;;15.82;2.65;;;;;;;7.41;98.43;99776.06;10411229;28;20046;-77
2023/03/14 13:18:03;;;;;;;12.77;1.80;;;;;;;6.87;94.57;99784.31;10396618;28;20049;-78
2023/03/14 13:23:04;;;;;;;8.93;1.45;;;;;;;6.77;92.86;99775.97;10378241;28;20091;-78
2023/03/14 13:28:04;;;;;;;4.25;1.23;;;;;;;7.47;84.89;99777.78;10338193;28;20061;-78
2023/03/14 13:33:05;;;;;;;7.00;2.45;;;;;;;8.10;81.41;99788.09;10372018;28;20057;-82
2023/03/14 13:38:17;;;;;;;9.65;1.30;;;;;;;8.44;81.37;99804.25;10356853;28;20092;-79
2023/03/14 13:43:24;;;;;;;9.50;1.65;;;;;;;8.16;80.87;99808.97;10340254;28;20058;-79
2023/03/14 13:48:27;;;;;;;9.27;2.10;;;;;;;8.56;82.92;99848.75;10355305;28;20053;-78
2023/03/14 13:53:27;;;;;;;6.13;1.30;;;;;;;7.84;81.87;99853.69;10409375;28;20051;-79
2023/03/14 13:58:29;;;;;;;9.60;1.13;;;;;;;7.41;79.76;99866.44;10352676;28;20587;-79
2023/03/14 14:03:34;;;;;;;7.45;0.85;;;;;;;7.61;79.87;99874.06;10371041;28;20088;-77
2023/03/14 14:08:35;;;;;;;6.93;0.93;;;;;;;7.88;72.79;99868.53;10377298;28;20095;-79
2023/03/14 14:13:35;;;;;;;6.10;0.90;;;;;;;9.12;70.62;99881.13;10410997;28;20033;-77
2023/03/14 14:18:37;;;;;;;8.55;2.13;;;;;;;10.37;69.76;99889.25;10410697;28;20113;-77
2023/03/14 14:23:38;;;;;;;10.23;1.15;;;;;;;9.77;69.98;99917.25;10364265;28;20077;-79
2023/03/14 14:28:40;;;;;;;9.23;2.03;;;;;;;8.54;74.26;99946.94;10363981;28;20486;-78
2023/03/14 14:33:41;;;;;;;7.95;1.17;;;;;;;7.78;77.12;99966.25;10410203;28;20045;-79
2023/03/14 14:38:42;;;;;;;6.32;1.15;;;;;;;7.58;80.47;99983.28;10395263;28;20037;-77
2023/03/14 14:43:42;;;;;;;9.70;2.15;;;;;;;8.54;79.81;99985.34;10393901;28;20036;-77
2023/03/14 14:48:43;;;;;;;5.28;1.13;;;;;;;9.67;76.92;99991.44;10376148;28;20049;-77
2023/03/14 14:53:43;;;;;;;7.25;1.85;;;;;;;10.30;75.30;99992.16;10372970;28;20103;-77
2023/03/14 14:58:45;;;;;;;6.03;1.08;;;;;;;9.13;71.88;100008.25;10382818;28;20045;-75
2023/03/14 15:03:47;;;;;;;7.03;1.27;;;;;;;7.67;73.92;100028.34;10392368;28;20041;-78
2023/03/14 15:08:48;;;;;;;8.25;1.20;;;;;;;6.51;76.69;100040.94;10376745;28;20048;-77
2023/03/14 15:13:52;;;;;;;6.25;1.30;;;;;;;6.45;81.63;100083.75;10392625;28;20036;-77
2023/03/14 15:18:57;;;;;;;10.27;1.60;;;;;;;6.18;86.22;100102.69;10408853;28;20042;-78
2023/03/14 15:23:57;;;;;;;8.60;1.42;;;;;;;5.73;90.91;100127.97;10374746;28;20065;-77
2023/03/14 15:28:58;;;;;;;11.60;2.53;;;;;;;6.03;92.73;100132.41;10375808;28;20038;-79
2023/03/14 15:33:58;;;;;;;12.75;1.60;;;;;;;6.33;90.21;100084.91;10392485;28;20720;-76
2023/03/14 15:38:59;;;;;;;6.90;1.45;;;;;;;6.95;88.72;100123.16;10392233;28;20041;-77
2023/03/14 15:43:59;;;;;;;9.32;1.17;;;;;;;7.13;84.63;100141.25;10390796;28;20033;-77
2023/03/14 15:49:00;;;;;;;7.28;1.05;;;;;;;7.84;77.80;100102.25;10389712;28;20076;-77
2023/03/14 15:54:00;;;;;;;4.20;0.70;;;;;;;8.82;75.28;100113.16;10406775;28;20049;-77
2023/03/14 15:59:01;;;;;;;7.60;1.33;;;;;;;9.11;74.41;100123.84;10404821;28;20037;-73
2023/03/14 16:04:02;;;;;;;5.35;0.90;;;;;;;7.89;71.82;100127.78;10391895;28;20152;-77
2023/03/14 16:09:04;;;;;;;7.97;0.90;;;;;;;6.82;73.32;100162.63;10386669;28;20048;-76
2023/03/14 16:14:04;;;;;;;7.43;0.98;;;;;;;6.47;76.95;100181.97;10387115;28;20117;-76
2023/03/14 16:19:06;;;;;;;6.43;1.20;;;;;;;5.89;79.27;100174.72;10388802;28;20498;-77
2023/03/14 16:24:07;;;;;;;4.57;0.98;;;;;;;5.55;81.91;100199.94;10373212;28;20037;-77
2023/03/14 16:29:07;;;;;;;8.05;1.40;;;;;;;5.37;84.45;100195.41;10388416;28;20042;-77
2023/03/14 16:34:08;;;;;;;7.53;1.10;;;;;;;5.38;85.53;100235.28;10406988;28;20033;-77
2023/03/14 16:39:09;;;;;;;11.77;1.70;;;;;;;5.10;86.60;100263.22;10407168;28;20085;-78
2023/03/14 16:44:09;;;;;;;2.28;0.85;;;;;;;4.74;91.01;100296.91;10389875;28;20044;-78
2023/03/14 16:49:10;;;;;;;7.80;1.30;;;;;;;4.24;93.52;100295.22;10414107;28;20054;-77
2023/03/14 16:54:10;;;;;;;3.60;1.23;;;;;;;3.96;96.00;100299.25;10380164;28;20030;-76
2023/03/14 16:59:11;;;;;;;6.68;1.27;;;;;;;3.97;97.41;100333.63;10408432;28;20107;-77
2023/03/14 17:04:11;;;;;;;11.13;1.85;;;;;;;3.85;100.00;100349.03;10397932;28;20049;-77
2023/03/14 17:09:12;;;;;;;11.35;1.77;;;;;;;3.81;100.00;100364.97;10397648;28;20056;-77
2023/03/14 17:14:12;;;;;;;6.18;1.17;;;;;;;3.68;100.00;100372.41;10381348;28;20109;-77
2023/03/14 17:19:13;;;;;;;5.03;0.98;;;;;;;3.64;100.00;100367.41;10396302;28;20037;-77
2023/03/14 17:24:13;;;;;;;10.23;1.65;;;;;;;3.61;100.00;100388.78;10411837;28;20037;-77
2023/03/14 17:29:13;;;;;;;6.82;1.95;;;;;;;3.51;100.00;100388.44;10370942;28;20077;-75
2023/03/14 17:34:14;;;;;;;5.72;1.02;;;;;;;3.33;100.00;100390.03;10347025;28;20049;-76
2023/03/14 17:39:14;;;;;;;10.52;3.33;;;;;;;3.10;100.00;100393.31;10383177;28;20049;-76
2023/03/14 17:44:15;;;;;;;13.48;3.60;;;;;;;3.08;100.00;100417.16;10409562;28;20041;-77
2023/03/14 17:49:15;;;;;;;13.90;3.50;;;;;;;3.23;100.00;100455.78;10446749;28;20079;-76
2023/03/14 17:54:16;;;;;;;7.57;2.17;;;;;;;3.16;100.00;100470.47;10435264;28;20064;-76
2023/03/14 17:59:16;;;;;;;7.30;1.75;;;;;;;3.07;100.00;100490.81;10406294;28;20037;-73
2023/03/14 18:04:17;;;;;;;8.60;2.22;;;;;;;2.76;100.00;100504.06;10419714;28;20040;-74
2023/03/14 18:09:17;;;;;;;10.90;2.40;;;;;;;2.31;100.00;100503.06;10453327;28;20087;-75
2023/03/14 18:14:18;;;;;;;6.45;2.10;;;;;;;2.10;100.00;100507.63;10401843;28;20037;-74
2023/03/14 18:19:18;;;;;;;5.15;1.38;;;;;;;1.91;100.00;100516.59;10450914;28;20104;-75
2023/03/14 18:24:22;;;;;;;6.28;1.58;;;;;;;1.91;100.00;100530.19;10435577;28;20083;-73
2023/03/14 18:29:22;;;;;;;5.68;1.65;;;;;;;1.84;100.00;100535.59;10451943;28;20045;-74
2023/03/14 18:34:24;;;;;;;7.38;1.30;;;;;;;0.91;100.00;100408.66;10449831;28;20041;-74
2023/03/14 18:39:24;;;;;;;5.30;1.33;;;;;;;1.74;100.00;100543.31;10451014;28;20033;-74
2023/03/14 18:44:24;;;;;;;6.10;1.50;;;;;;;1.66;100.00;100543.47;10449807;28;20033;-73
2023/03/14 18:49:25;;;;;;;11.75;2.10;;;;;;;1.57;100.00;100556.38;10381440;28;20386;-74
2023/03/14 18:54:26;;;;;;;9.82;2.42;;;;;;;1.39;100.00;100541.50;10395050;28;20109;-74
2023/03/14 18:59:26;;;;;;;7.18;1.70;;;;;;;1.33;100.00;100549.63;10409056;28;20037;-73
2023/03/14 19:04:27;;;;;;;7.40;1.75;;;;;;;1.23;100.00;100549.97;10370413;28;20256;-73
2023/03/14 19:09:27;;;;;;;9.85;2.15;;;;;;;1.28;100.00;100566.50;10358239;28;20072;-74
2023/03/14 19:14:28;;;;;;;9.60;2.03;;;;;;;1.33;100.00;100572.13;10382120;28;20061;-74
2023/03/14 19:19:28;;;;;;;11.52;2.28;;;;;;;1.25;100.00;100569.59;10391202;28;20565;-74
2023/03/14 19:24:29;;;;;;;11.20;3.65;;;;;;;1.27;100.00;100572.94;10410208;28;20279;-73
2023/03/14 19:29:30;;;;;;;8.27;1.60;;;;;;;1.21;100.00;100577.28;10393380;28;20512;-74
2023/03/14 19:34:31;;;;;;;6.38;2.28;;;;;;;1.20;100.00;100580.22;10396950;28;20043;-73
2023/03/14 19:39:32;;;;;;;14.30;3.15;;;;;;;1.36;100.00;100592.59;10408522;28;20034;-74
2023/03/14 19:44:32;;;;;;;10.65;1.73;;;;;;;0.65;100.00;100454.59;10390332;28;20041;-74
2023/03/14 19:49:33;;;;;;;6.70;2.33;;;;;;;1.58;100.00;100598.75;10403127;28;20076;-73
2023/03/14 19:54:33;;;;;;;8.18;2.28;;;;;;;1.48;100.00;100595.59;10406372;28;20486;-74
2023/03/14 19:59:34;;;;;;;14.50;2.50;;;;;;;1.28;100.00;100585.47;10390876;28;20033;-74
2023/03/14 20:04:34;;;;;;;9.55;3.60;;;;;;;0.99;100.00;100570.25;10388155;28;20029;-76
2023/03/14 20:09:35;;;;;;;8.15;1.50;;;;;;;0.98;100.00;100579.44;10406466;28;20060;-76
2023/03/14 20:14:36;;;;;;;14.02;1.90;;;;;;;1.02;100.00;100607.00;10373457;28;20064;-76
2023/03/14 20:19:36;;;;;;;15.02;2.88;;;;;;;0.87;100.00;100599.81;10356190;28;20041;-75
2023/03/14 20:24:37;;;;;;;15.57;3.47;;;;;;;0.96;100.00;100624.91;10378780;28;20127;-77
2023/03/14 20:29:37;;;;;;;7.95;2.05;;;;;;;0.88;100.00;100623.16;10411654;28;20544;-76
2023/03/14 20:34:38;;;;;;;12.70;2.63;;;;;;;0.98;100.00;100637.22;10389731;28;20057;-77
2023/03/14 20:39:39;;;;;;;9.05;2.38;;;;;;;1.02;100.00;100636.81;10405871;28;20037;-76
2023/03/14 20:44:39;;;;;;;14.27;2.40;;;;;;;0.97;100.00;100640.97;10373124;28;20030;-77
2023/03/14 20:49:40;;;;;;;12.93;2.60;;;;;;;0.90;100.00;100634.63;10371936;28;20052;-77
2023/03/14 20:54:40;;;;;;;10.18;2.40;;;;;;;0.80;100.00;100604.34;10390050;28;20076;-77
2023/03/14 20:59:41;;;;;;;14.73;2.22;;;;;;;0.96;100.00;100631.16;10383017;28;20050;-76
2023/03/14 21:04:42;;;;;;;8.75;2.15;;;;;;;1.04;100.00;100634.75;10376734;28;20037;-77
2023/03/14 21:09:42;;;;;;;8.40;1.58;;;;;;;1.04;100.00;100638.28;10388785;28;20049;-77
2023/03/14 21:14:43;;;;;;;22.65;4.20;;;;;;;1.08;100.00;100644.16;10362484;28;20042;-77
2023/03/14 21:19:44;;;;;;;7.75;1.98;;;;;;;0.94;100.00;100616.94;10383934;28;20034;-77
2023/03/14 21:24:45;;;;;;;11.82;2.67;;;;;;;1.10;100.00;100639.38;10370626;28;20486;-77
2023/03/14 21:29:45;;;;;;;15.13;2.53;;;;;;;1.28;100.00;100656.00;10385752;28;20041;-76
2023/03/14 21:34:48;;;;;;;12.68;2.25;;;;;;;1.25;100.00;100634.69;10408657;28;20317;-77
2023/03/14 21:39:49;;;;;;;10.82;1.83;;;;;;;1.31;100.00;100655.59;10452178;28;20040;-77
2023/03/14 21:44:50;;;;;;;5.45;1.73;;;;;;;1.23;100.00;100646.78;10434429;28;20029;-77
2023/03/14 21:49:52;;;;;;;7.72;1.67;;;;;;;1.23;100.00;100658.44;10434243;28;20048;-77
2023/03/14 21:54:53;;;;;;;6.30;1.60;;;;;;;1.14;100.00;100656.94;10452352;28;20033;-78
2023/03/14 21:59:53;;;;;;;11.63;2.80;;;;;;;1.07;100.00;100651.44;10402431;28;20029;-77
2023/03/14 22:04:54;;;;;;;4.07;1.70;;;;;;;1.06;100.00;100654.38;10400871;28;20036;-77
2023/03/14 22:09:54;;;;;;;7.00;1.60;;;;;;;0.87;100.00;100637.75;10450195;28;20048;-78
2023/03/14 22:14:55;;;;;;;13.23;3.20;;;;;;;1.01;100.00;100660.38;10449874;28;20067;-77
2023/03/14 22:19:55;;;;;;;17.33;3.45;;;;;;;1.03;100.00;100685.41;10449824;28;20037;-77
2023/03/14 22:24:56;;;;;;;7.47;1.88;;;;;;;1.11;100.00;100660.03;10449917;28;20044;-78
2023/03/14 22:29:57;;;;;;;14.73;3.05;;;;;;;1.31;100.00;100671.03;10435685;28;20060;-77
2023/03/14 22:34:57;;;;;;;6.88;1.63;;;;;;;1.25;100.00;100678.06;10425589;28;20037;-74
2023/03/14 22:39:58;;;;;;;7.07;1.30;;;;;;;1.22;100.00;100678.47;10431369;28;20044;-78
2023/03/14 22:44:58;;;;;;;5.63;1.30;;;;;;;1.11;100.00;100690.69;10432237;28;20041;-77
2023/03/14 22:49:59;;;;;;;6.20;2.53;;;;;;;1.04;100.00;100678.97;10415314;28;20041;-77
2023/03/14 22:54:59;;;;;;;5.97;1.30;;;;;;;1.10;100.00;100696.31;10451516;28;20040;-77
2023/03/14 23:00:00;;;;;;;3.35;1.02;;;;;;;0.89;100.00;100689.03;10432994;28;20037;-76
2023/03/14 23:05:00;;;;;;;7.07;1.13;;;;;;;0.96;100.00;100727.91;10431215;28;20040;-77
2023/03/14 23:10:01;;;;;;;4.80;1.50;;;;;;;0.68;100.00;100692.59;10436513;28;20226;-77
2023/03/14 23:15:01;;;;;;;5.07;1.15;;;;;;;0.90;100.00;100728.69;10438455;28;20076;-77